Indianapolis, IN (46295)

11:39 PM EDT on July 24, 2016 (GMT -0400)
Governors Pointe | | Change Station

Elev 682 ft 39.67 °N, 86.20 °W | Updated 2 seconds ago

Scattered Clouds
Scattered Clouds
81.4 °F
Feels Like 89 °F
N
0.0
Wind Variable Wind from North
Gusts 0.0 mph

Today
High -- | Low -- °F
--% Chance of Precip.
Yesterday
High -- | Low -- °F
Precip. -- in
Pressure 29.94 in
Visibility 10.0 miles
Clouds Few 4000 ft
Scattered Clouds 25000 ft
Heat Index 89 °F
Dew Point 78 °F
Humidity 88%
Rainfall 0.00 in
Snow Depth Not available.
6:37 AM 9:04 PM
Waning Gibbous, 70% visible
METAR KIND 250254Z 21007KT 10SM FEW040 SCT250 27/24 A2996 RMK AO2 SLP138 OCNL LTGIC DSNT NW CB DSNT NW T02720244 53004
Pressure 29.94 in
Visibility 10.0 miles
Clouds Few 4000 ft
Scattered Clouds 25000 ft
Heat Index 89 °F
Dew Point 78 °F
Humidity 88%
Rainfall 0.00 in
Snow Depth Not available.
6:37 AM 9:04 PM
Waning Gibbous, 70% visible
METAR KIND 250254Z 21007KT 10SM FEW040 SCT250 27/24 A2996 RMK AO2 SLP138 OCNL LTGIC DSNT NW CB DSNT NW T02720244 53004

10-Day Weather Forecast

Almanac

Astronomy

Jul. 24, 2016 Rise Set
Actual Time
Civil Twilight
Nautical Twilight
Astronomical Twilight
Moon
Length of Visible Light
Length of Day
Tomorrow will be .
, % of the Moon is Illuminated

Today's Extremes

State Highs State Lows

Community

WunderPhotos

Upload Photos

1,927,256 photos uploaded!

WunderBlog® & News

Nearby

Air Quality

  Air Quality AQ Index Pollutant
Not available.

Snow Depth

Station Depth Elevation

Earthquake Activity

City Distance Mag. Time & Date
Minimum magnitude displayed is 2.5.

Coastal Water Temperatures

Place Temperature

Stations

Nearby Weather Stations

Station Location Temp. Windchill Dew Point Humidity Wind Precip. Elev Updated Type
                   

Watches & Warnings

There are currently no watches in effect.